sensor_id;sensor_type;location;lat;lon;timestamp;P1;durP1;ratioP1;P2;durP2;ratioP2
17404;SDS011;8820;54.604;18.226;2023-03-01T00:01:27;12.27;;;7.23;;
17404;SDS011;8820;54.604;18.226;2023-03-01T00:03:57;12.57;;;8.47;;
17404;SDS011;8820;54.604;18.226;2023-03-01T00:06:27;11.53;;;6.97;;
17404;SDS011;8820;54.604;18.226;2023-03-01T00:08:56;10.63;;;6.70;;
17404;SDS011;8820;54.604;18.226;2023-03-01T00:11:26;7.73;;;6.30;;
17404;SDS011;8820;54.604;18.226;2023-03-01T00:13:58;14.30;;;6.17;;
17404;SDS011;8820;54.604;18.226;2023-03-01T00:16:29;8.97;;;6.50;;
17404;SDS011;8820;54.604;18.226;2023-03-01T00:19:00;10.40;;;6.47;;
17404;SDS011;8820;54.604;18.226;2023-03-01T00:21:30;11.07;;;7.00;;
17404;SDS011;8820;54.604;18.226;2023-03-01T00:23:59;13.77;;;6.40;;
17404;SDS011;8820;54.604;18.226;2023-03-01T00:26:27;12.10;;;6.60;;
17404;SDS011;8820;54.604;18.226;2023-03-01T00:28:58;12.37;;;6.13;;
17404;SDS011;8820;54.604;18.226;2023-03-01T00:31:28;9.70;;;6.73;;
17404;SDS011;8820;54.604;18.226;2023-03-01T00:33:59;9.30;;;6.00;;
17404;SDS011;8820;54.604;18.226;2023-03-01T00:36:31;9.90;;;5.73;;
17404;SDS011;8820;54.604;18.226;2023-03-01T00:39:02;10.53;;;6.13;;
17404;SDS011;8820;54.604;18.226;2023-03-01T00:41:32;9.30;;;6.10;;
17404;SDS011;8820;54.604;18.226;2023-03-01T00:44:03;10.90;;;5.90;;
17404;SDS011;8820;54.604;18.226;2023-03-01T00:46:34;13.70;;;6.53;;
17404;SDS011;8820;54.604;18.226;2023-03-01T00:49:03;12.10;;;6.37;;
17404;SDS011;8820;54.604;18.226;2023-03-01T00:51:33;15.23;;;6.67;;
17404;SDS011;8820;54.604;18.226;2023-03-01T00:54:02;14.60;;;6.90;;
17404;SDS011;8820;54.604;18.226;2023-03-01T00:56:31;10.17;;;6.70;;
17404;SDS011;8820;54.604;18.226;2023-03-01T00:59:00;15.60;;;7.13;;
17404;SDS011;8820;54.604;18.226;2023-03-01T01:01:31;8.90;;;6.30;;
17404;SDS011;8820;54.604;18.226;2023-03-01T01:04:01;14.23;;;6.53;;
17404;SDS011;8820;54.604;18.226;2023-03-01T01:06:33;12.57;;;7.07;;
17404;SDS011;8820;54.604;18.226;2023-03-01T01:09:02;11.53;;;6.13;;
17404;SDS011;8820;54.604;18.226;2023-03-01T01:11:33;10.07;;;6.03;;
17404;SDS011;8820;54.604;18.226;2023-03-01T01:14:04;12.73;;;6.33;;
17404;SDS011;8820;54.604;18.226;2023-03-01T01:16:33;12.70;;;6.53;;
17404;SDS011;8820;54.604;18.226;2023-03-01T01:19:02;10.13;;;6.70;;
17404;SDS011;8820;54.604;18.226;2023-03-01T01:21:31;14.43;;;6.67;;
17404;SDS011;8820;54.604;18.226;2023-03-01T01:24:02;15.90;;;7.13;;
17404;SDS011;8820;54.604;18.226;2023-03-01T01:26:32;10.80;;;6.73;;
17404;SDS011;8820;54.604;18.226;2023-03-01T01:29:02;12.23;;;6.83;;
17404;SDS011;8820;54.604;18.226;2023-03-01T01:31:34;12.63;;;7.03;;
17404;SDS011;8820;54.604;18.226;2023-03-01T01:34:07;14.10;;;6.90;;
17404;SDS011;8820;54.604;18.226;2023-03-01T01:36:37;9.50;;;7.27;;
17404;SDS011;8820;54.604;18.226;2023-03-01T01:39:06;10.83;;;6.93;;
17404;SDS011;8820;54.604;18.226;2023-03-01T01:41:40;12.93;;;7.30;;
17404;SDS011;8820;54.604;18.226;2023-03-01T01:44:11;9.23;;;6.77;;
17404;SDS011;8820;54.604;18.226;2023-03-01T01:46:44;11.67;;;7.37;;
17404;SDS011;8820;54.604;18.226;2023-03-01T01:49:27;16.37;;;8.37;;
17404;SDS011;8820;54.604;18.226;2023-03-01T01:52:02;12.10;;;7.57;;
17404;SDS011;8820;54.604;18.226;2023-03-01T01:54:38;13.67;;;8.10;;
17404;SDS011;8820;54.604;18.226;2023-03-01T01:57:11;14.40;;;7.93;;
17404;SDS011;8820;54.604;18.226;2023-03-01T01:59:43;14.27;;;6.93;;
17404;SDS011;8820;54.604;18.226;2023-03-01T02:02:19;15.77;;;8.13;;
17404;SDS011;8820;54.604;18.226;2023-03-01T02:04:49;13.93;;;7.77;;
17404;SDS011;8820;54.604;18.226;2023-03-01T02:07:22;16.60;;;8.67;;
17404;SDS011;8820;54.604;18.226;2023-03-01T02:09:52;17.40;;;8.77;;
17404;SDS011;8820;54.604;18.226;2023-03-01T02:12:21;14.13;;;8.80;;
17404;SDS011;8820;54.604;18.226;2023-03-01T02:14:52;16.97;;;8.90;;
17404;SDS011;8820;54.604;18.226;2023-03-01T02:17:22;12.10;;;8.40;;
17404;SDS011;8820;54.604;18.226;2023-03-01T02:19:55;15.63;;;9.53;;
17404;SDS011;8820;54.604;18.226;2023-03-01T02:22:34;18.50;;;9.37;;
17404;SDS011;8820;54.604;18.226;2023-03-01T02:25:08;15.53;;;8.83;;
17404;SDS011;8820;54.604;18.226;2023-03-01T02:27:49;17.17;;;9.53;;
17404;SDS011;8820;54.604;18.226;2023-03-01T02:30:25;18.33;;;9.40;;
17404;SDS011;8820;54.604;18.226;2023-03-01T02:32:55;13.50;;;9.23;;
17404;SDS011;8820;54.604;18.226;2023-03-01T02:35:30;19.37;;;10.07;;
17404;SDS011;8820;54.604;18.226;2023-03-01T02:38:02;12.60;;;9.47;;
17404;SDS011;8820;54.604;18.226;2023-03-01T02:40:34;16.60;;;9.67;;
17404;SDS011;8820;54.604;18.226;2023-03-01T02:43:06;18.43;;;9.67;;
17404;SDS011;8820;54.604;18.226;2023-03-01T02:45:47;21.63;;;9.50;;
17404;SDS011;8820;54.604;18.226;2023-03-01T02:48:16;18.20;;;10.43;;
17404;SDS011;8820;54.604;18.226;2023-03-01T02:50:52;21.93;;;10.97;;
17404;SDS011;8820;54.604;18.226;2023-03-01T02:53:33;21.33;;;11.33;;
17404;SDS011;8820;54.604;18.226;2023-03-01T02:56:09;17.70;;;10.43;;
17404;SDS011;8820;54.604;18.226;2023-03-01T02:58:40;21.83;;;11.60;;
17404;SDS011;8820;54.604;18.226;2023-03-01T03:01:14;20.67;;;11.53;;
17404;SDS011;8820;54.604;18.226;2023-03-01T03:03:43;22.97;;;12.13;;
17404;SDS011;8820;54.604;18.226;2023-03-01T03:06:12;22.03;;;11.93;;
17404;SDS011;8820;54.604;18.226;2023-03-01T03:08:41;23.33;;;12.33;;
17404;SDS011;8820;54.604;18.226;2023-03-01T03:11:10;17.30;;;12.13;;
17404;SDS011;8820;54.604;18.226;2023-03-01T03:13:39;20.97;;;12.13;;
17404;SDS011;8820;54.604;18.226;2023-03-01T03:16:17;23.80;;;12.67;;
17404;SDS011;8820;54.604;18.226;2023-03-01T03:18:46;23.70;;;12.30;;
17404;SDS011;8820;54.604;18.226;2023-03-01T03:21:15;22.37;;;12.53;;
17404;SDS011;8820;54.604;18.226;2023-03-01T03:23:44;22.50;;;12.97;;
17404;SDS011;8820;54.604;18.226;2023-03-01T03:26:13;23.37;;;12.77;;
17404;SDS011;8820;54.604;18.226;2023-03-01T03:28:42;22.43;;;11.87;;
17404;SDS011;8820;54.604;18.226;2023-03-01T03:31:11;24.23;;;13.40;;
17404;SDS011;8820;54.604;18.226;2023-03-01T03:33:41;24.03;;;13.27;;
17404;SDS011;8820;54.604;18.226;2023-03-01T03:36:14;24.30;;;13.00;;
17404;SDS011;8820;54.604;18.226;2023-03-01T03:38:44;25.03;;;14.60;;
17404;SDS011;8820;54.604;18.226;2023-03-01T03:41:14;25.00;;;12.90;;
17404;SDS011;8820;54.604;18.226;2023-03-01T03:43:43;23.77;;;12.97;;
17404;SDS011;8820;54.604;18.226;2023-03-01T03:46:12;22.00;;;12.70;;
17404;SDS011;8820;54.604;18.226;2023-03-01T03:48:43;26.77;;;13.40;;
17404;SDS011;8820;54.604;18.226;2023-03-01T03:51:14;17.87;;;11.63;;
17404;SDS011;8820;54.604;18.226;2023-03-01T03:53:44;20.53;;;11.50;;
17404;SDS011;8820;54.604;18.226;2023-03-01T03:56:14;24.87;;;12.77;;
17404;SDS011;8820;54.604;18.226;2023-03-01T03:58:42;21.90;;;13.30;;
17404;SDS011;8820;54.604;18.226;2023-03-01T04:01:11;23.27;;;12.73;;
17404;SDS011;8820;54.604;18.226;2023-03-01T04:03:40;25.33;;;13.37;;
17404;SDS011;8820;54.604;18.226;2023-03-01T04:06:13;26.10;;;13.00;;
17404;SDS011;8820;54.604;18.226;2023-03-01T04:08:42;17.87;;;12.47;;
17404;SDS011;8820;54.604;18.226;2023-03-01T04:11:11;19.87;;;11.90;;
17404;SDS011;8820;54.604;18.226;2023-03-01T04:13:56;21.77;;;12.47;;
17404;SDS011;8820;54.604;18.226;2023-03-01T04:16:27;23.20;;;12.57;;
17404;SDS011;8820;54.604;18.226;2023-03-01T04:18:57;20.67;;;12.57;;
17404;SDS011;8820;54.604;18.226;2023-03-01T04:21:27;20.17;;;12.60;;
17404;SDS011;8820;54.604;18.226;2023-03-01T04:23:56;20.00;;;12.70;;
17404;SDS011;8820;54.604;18.226;2023-03-01T04:26:25;19.57;;;11.83;;
17404;SDS011;8820;54.604;18.226;2023-03-01T04:28:55;25.33;;;14.90;;
17404;SDS011;8820;54.604;18.226;2023-03-01T04:31:24;22.47;;;13.60;;
17404;SDS011;8820;54.604;18.226;2023-03-01T04:33:53;18.27;;;12.73;;
17404;SDS011;8820;54.604;18.226;2023-03-01T04:36:26;23.50;;;13.57;;
17404;SDS011;8820;54.604;18.226;2023-03-01T04:38:56;20.63;;;12.67;;
17404;SDS011;8820;54.604;18.226;2023-03-01T04:41:25;22.80;;;13.13;;
17404;SDS011;8820;54.604;18.226;2023-03-01T04:43:54;18.80;;;12.97;;
17404;SDS011;8820;54.604;18.226;2023-03-01T04:46:23;22.50;;;13.60;;
17404;SDS011;8820;54.604;18.226;2023-03-01T04:48:52;22.93;;;13.23;;
17404;SDS011;8820;54.604;18.226;2023-03-01T04:51:21;25.33;;;14.57;;
17404;SDS011;8820;54.604;18.226;2023-03-01T04:53:51;22.23;;;13.63;;
17404;SDS011;8820;54.604;18.226;2023-03-01T04:56:22;17.77;;;11.43;;
17404;SDS011;8820;54.604;18.226;2023-03-01T04:58:52;21.87;;;12.90;;
17404;SDS011;8820;54.604;18.226;2023-03-01T05:01:21;23.87;;;13.30;;
17404;SDS011;8820;54.604;18.226;2023-03-01T05:03:50;24.37;;;12.73;;
17404;SDS011;8820;54.604;18.226;2023-03-01T05:06:20;20.80;;;12.73;;
17404;SDS011;8820;54.604;18.226;2023-03-01T05:08:49;23.97;;;13.93;;
17404;SDS011;8820;54.604;18.226;2023-03-01T05:11:19;28.23;;;15.23;;
17404;SDS011;8820;54.604;18.226;2023-03-01T05:13:48;27.17;;;15.50;;
17404;SDS011;8820;54.604;18.226;2023-03-01T05:16:21;28.00;;;15.10;;
17404;SDS011;8820;54.604;18.226;2023-03-01T05:18:50;23.47;;;14.40;;
17404;SDS011;8820;54.604;18.226;2023-03-01T05:21:21;27.73;;;15.40;;
17404;SDS011;8820;54.604;18.226;2023-03-01T05:23:49;25.90;;;14.73;;
17404;SDS011;8820;54.604;18.226;2023-03-01T05:26:20;30.67;;;16.23;;
17404;SDS011;8820;54.604;18.226;2023-03-01T05:28:54;33.30;;;15.40;;
17404;SDS011;8820;54.604;18.226;2023-03-01T05:31:26;26.90;;;14.67;;
17404;SDS011;8820;54.604;18.226;2023-03-01T05:33:57;29.83;;;16.23;;
17404;SDS011;8820;54.604;18.226;2023-03-01T05:36:26;29.63;;;15.47;;
17404;SDS011;8820;54.604;18.226;2023-03-01T05:38:55;37.27;;;18.10;;
17404;SDS011;8820;54.604;18.226;2023-03-01T05:41:25;27.80;;;15.13;;
17404;SDS011;8820;54.604;18.226;2023-03-01T05:43:54;23.67;;;14.33;;
17404;SDS011;8820;54.604;18.226;2023-03-01T05:46:23;29.63;;;15.43;;
17404;SDS011;8820;54.604;18.226;2023-03-01T05:48:52;32.10;;;16.47;;
17404;SDS011;8820;54.604;18.226;2023-03-01T05:51:21;31.37;;;16.20;;
17404;SDS011;8820;54.604;18.226;2023-03-01T05:53:50;29.47;;;17.03;;
17404;SDS011;8820;54.604;18.226;2023-03-01T05:56:19;31.53;;;18.63;;
17404;SDS011;8820;54.604;18.226;2023-03-01T05:58:50;33.30;;;16.70;;
17404;SDS011;8820;54.604;18.226;2023-03-01T06:01:19;28.70;;;15.23;;
17404;SDS011;8820;54.604;18.226;2023-03-01T06:03:48;27.40;;;15.30;;
17404;SDS011;8820;54.604;18.226;2023-03-01T06:06:17;28.20;;;16.10;;
17404;SDS011;8820;54.604;18.226;2023-03-01T06:08:45;27.93;;;14.90;;
17404;SDS011;8820;54.604;18.226;2023-03-01T06:11:14;31.60;;;16.33;;
17404;SDS011;8820;54.604;18.226;2023-03-01T06:13:43;32.07;;;15.67;;
17404;SDS011;8820;54.604;18.226;2023-03-01T06:16:14;34.47;;;15.90;;
17404;SDS011;8820;54.604;18.226;2023-03-01T06:18:43;29.13;;;16.77;;
17404;SDS011;8820;54.604;18.226;2023-03-01T06:21:12;30.97;;;15.83;;
17404;SDS011;8820;54.604;18.226;2023-03-01T06:23:41;28.93;;;15.37;;
17404;SDS011;8820;54.604;18.226;2023-03-01T06:26:09;33.57;;;15.73;;
17404;SDS011;8820;54.604;18.226;2023-03-01T06:28:38;37.17;;;16.63;;
17404;SDS011;8820;54.604;18.226;2023-03-01T06:31:07;34.17;;;16.43;;
17404;SDS011;8820;54.604;18.226;2023-03-01T06:33:38;35.80;;;17.57;;
17404;SDS011;8820;54.604;18.226;2023-03-01T06:36:07;29.70;;;16.13;;
17404;SDS011;8820;54.604;18.226;2023-03-01T06:38:37;31.47;;;15.27;;
17404;SDS011;8820;54.604;18.226;2023-03-01T06:41:07;25.40;;;14.63;;
17404;SDS011;8820;54.604;18.226;2023-03-01T06:43:36;30.90;;;14.60;;
17404;SDS011;8820;54.604;18.226;2023-03-01T06:46:05;29.63;;;15.57;;
17404;SDS011;8820;54.604;18.226;2023-03-01T06:48:34;29.90;;;15.60;;
17404;SDS011;8820;54.604;18.226;2023-03-01T06:51:05;29.37;;;13.53;;
17404;SDS011;8820;54.604;18.226;2023-03-01T06:53:35;30.50;;;14.53;;
17404;SDS011;8820;54.604;18.226;2023-03-01T06:56:04;32.43;;;16.23;;
17404;SDS011;8820;54.604;18.226;2023-03-01T06:58:33;36.10;;;16.67;;
17404;SDS011;8820;54.604;18.226;2023-03-01T07:01:05;35.40;;;15.70;;
17404;SDS011;8820;54.604;18.226;2023-03-01T07:03:34;27.00;;;14.53;;
17404;SDS011;8820;54.604;18.226;2023-03-01T07:06:03;36.63;;;16.33;;
17404;SDS011;8820;54.604;18.226;2023-03-01T07:08:33;35.00;;;15.27;;
17404;SDS011;8820;54.604;18.226;2023-03-01T07:11:02;30.73;;;15.60;;
17404;SDS011;8820;54.604;18.226;2023-03-01T07:13:32;31.23;;;14.47;;
17404;SDS011;8820;54.604;18.226;2023-03-01T07:16:02;30.07;;;15.57;;
17404;SDS011;8820;54.604;18.226;2023-03-01T07:18:31;28.80;;;15.43;;
17404;SDS011;8820;54.604;18.226;2023-03-01T07:21:03;26.83;;;15.07;;
17404;SDS011;8820;54.604;18.226;2023-03-01T07:23:35;34.50;;;16.87;;
17404;SDS011;8820;54.604;18.226;2023-03-01T07:26:04;27.97;;;14.97;;
17404;SDS011;8820;54.604;18.226;2023-03-01T07:28:32;31.03;;;15.83;;
17404;SDS011;8820;54.604;18.226;2023-03-01T07:31:05;26.93;;;14.57;;
17404;SDS011;8820;54.604;18.226;2023-03-01T07:33:34;28.67;;;15.83;;
17404;SDS011;8820;54.604;18.226;2023-03-01T07:36:03;28.53;;;16.37;;
17404;SDS011;8820;54.604;18.226;2023-03-01T07:38:34;31.80;;;16.33;;
17404;SDS011;8820;54.604;18.226;2023-03-01T07:41:03;28.80;;;15.40;;
17404;SDS011;8820;54.604;18.226;2023-03-01T07:43:33;29.17;;;16.70;;
17404;SDS011;8820;54.604;18.226;2023-03-01T07:46:02;31.27;;;15.90;;
17404;SDS011;8820;54.604;18.226;2023-03-01T07:48:32;31.53;;;15.00;;
17404;SDS011;8820;54.604;18.226;2023-03-01T07:51:02;35.60;;;15.80;;
17404;SDS011;8820;54.604;18.226;2023-03-01T07:53:35;33.10;;;17.67;;
17404;SDS011;8820;54.604;18.226;2023-03-01T07:56:05;35.47;;;18.53;;
17404;SDS011;8820;54.604;18.226;2023-03-01T07:58:35;35.13;;;17.20;;
17404;SDS011;8820;54.604;18.226;2023-03-01T08:01:05;32.10;;;16.77;;
17404;SDS011;8820;54.604;18.226;2023-03-01T08:03:35;30.27;;;15.30;;
17404;SDS011;8820;54.604;18.226;2023-03-01T08:06:05;26.40;;;15.80;;
17404;SDS011;8820;54.604;18.226;2023-03-01T08:08:37;29.60;;;15.40;;
17404;SDS011;8820;54.604;18.226;2023-03-01T08:11:06;24.80;;;14.97;;
17404;SDS011;8820;54.604;18.226;2023-03-01T08:13:37;26.60;;;15.00;;
17404;SDS011;8820;54.604;18.226;2023-03-01T08:16:07;25.17;;;13.50;;
17404;SDS011;8820;54.604;18.226;2023-03-01T08:18:38;28.70;;;16.47;;
17404;SDS011;8820;54.604;18.226;2023-03-01T08:21:08;23.30;;;13.83;;
17404;SDS011;8820;54.604;18.226;2023-03-01T08:23:40;24.93;;;15.13;;
17404;SDS011;8820;54.604;18.226;2023-03-01T08:26:10;24.23;;;13.00;;
17404;SDS011;8820;54.604;18.226;2023-03-01T08:28:40;23.50;;;14.07;;
17404;SDS011;8820;54.604;18.226;2023-03-01T08:31:13;25.73;;;13.73;;
17404;SDS011;8820;54.604;18.226;2023-03-01T08:33:43;25.83;;;12.93;;
17404;SDS011;8820;54.604;18.226;2023-03-01T08:36:17;21.87;;;13.20;;
17404;SDS011;8820;54.604;18.226;2023-03-01T08:38:49;23.90;;;14.10;;
17404;SDS011;8820;54.604;18.226;2023-03-01T08:41:18;21.00;;;12.90;;
17404;SDS011;8820;54.604;18.226;2023-03-01T08:43:47;27.17;;;16.17;;
17404;SDS011;8820;54.604;18.226;2023-03-01T08:46:16;25.57;;;15.20;;
17404;SDS011;8820;54.604;18.226;2023-03-01T08:48:45;83.53;;;42.67;;
17404;SDS011;8820;54.604;18.226;2023-03-01T08:51:16;27.97;;;16.07;;
17404;SDS011;8820;54.604;18.226;2023-03-01T08:53:46;27.57;;;17.00;;
17404;SDS011;8820;54.604;18.226;2023-03-01T08:56:17;34.03;;;19.03;;
17404;SDS011;8820;54.604;18.226;2023-03-01T08:58:46;24.60;;;14.43;;
17404;SDS011;8820;54.604;18.226;2023-03-01T09:01:17;27.30;;;14.50;;
17404;SDS011;8820;54.604;18.226;2023-03-01T09:03:47;21.63;;;14.23;;
17404;SDS011;8820;54.604;18.226;2023-03-01T09:06:16;24.00;;;13.97;;
17404;SDS011;8820;54.604;18.226;2023-03-01T09:08:46;22.83;;;13.10;;
17404;SDS011;8820;54.604;18.226;2023-03-01T09:11:18;24.57;;;14.60;;
17404;SDS011;8820;54.604;18.226;2023-03-01T09:13:48;23.50;;;14.80;;
17404;SDS011;8820;54.604;18.226;2023-03-01T09:16:18;24.67;;;14.33;;
17404;SDS011;8820;54.604;18.226;2023-03-01T09:18:49;28.23;;;15.10;;
17404;SDS011;8820;54.604;18.226;2023-03-01T09:21:19;26.20;;;15.63;;
17404;SDS011;8820;54.604;18.226;2023-03-01T09:24:05;34.23;;;21.10;;
17404;SDS011;8820;54.604;18.226;2023-03-01T09:26:36;28.03;;;15.97;;
17404;SDS011;8820;54.604;18.226;2023-03-01T09:29:05;26.50;;;14.97;;
17404;SDS011;8820;54.604;18.226;2023-03-01T09:31:39;26.80;;;15.50;;
17404;SDS011;8820;54.604;18.226;2023-03-01T09:34:08;23.67;;;14.77;;
17404;SDS011;8820;54.604;18.226;2023-03-01T09:36:37;24.93;;;14.97;;
17404;SDS011;8820;54.604;18.226;2023-03-01T09:39:06;25.77;;;14.67;;
17404;SDS011;8820;54.604;18.226;2023-03-01T09:41:44;22.50;;;14.47;;
17404;SDS011;8820;54.604;18.226;2023-03-01T09:44:21;31.33;;;16.17;;
17404;SDS011;8820;54.604;18.226;2023-03-01T09:46:56;24.87;;;13.50;;
17404;SDS011;8820;54.604;18.226;2023-03-01T09:49:26;24.37;;;14.73;;
17404;SDS011;8820;54.604;18.226;2023-03-01T09:51:59;25.63;;;15.50;;
17404;SDS011;8820;54.604;18.226;2023-03-01T09:54:31;32.10;;;16.67;;
17404;SDS011;8820;54.604;18.226;2023-03-01T09:57:11;28.27;;;16.20;;
17404;SDS011;8820;54.604;18.226;2023-03-01T09:59:50;32.10;;;17.40;;
17404;SDS011;8820;54.604;18.226;2023-03-01T10:02:31;27.57;;;15.73;;
17404;SDS011;8820;54.604;18.226;2023-03-01T10:05:12;29.43;;;17.10;;
17404;SDS011;8820;54.604;18.226;2023-03-01T10:08:00;27.23;;;15.87;;
17404;SDS011;8820;54.604;18.226;2023-03-01T10:10:52;25.67;;;16.03;;
17404;SDS011;8820;54.604;18.226;2023-03-01T10:13:23;28.13;;;16.03;;
17404;SDS011;8820;54.604;18.226;2023-03-01T10:15:57;29.20;;;15.63;;
17404;SDS011;8820;54.604;18.226;2023-03-01T10:18:33;31.30;;;17.70;;
17404;SDS011;8820;54.604;18.226;2023-03-01T10:21:08;25.00;;;14.77;;
17404;SDS011;8820;54.604;18.226;2023-03-01T10:23:43;28.67;;;16.20;;
17404;SDS011;8820;54.604;18.226;2023-03-01T10:26:16;27.37;;;15.63;;
17404;SDS011;8820;54.604;18.226;2023-03-01T10:29:00;28.13;;;17.43;;
17404;SDS011;8820;54.604;18.226;2023-03-01T10:31:37;23.33;;;13.93;;
17404;SDS011;8820;54.604;18.226;2023-03-01T10:34:12;25.80;;;15.67;;
17404;SDS011;8820;54.604;18.226;2023-03-01T10:36:43;26.27;;;15.90;;
17404;SDS011;8820;54.604;18.226;2023-03-01T10:39:17;26.17;;;15.27;;
17404;SDS011;8820;54.604;18.226;2023-03-01T10:41:54;25.27;;;15.53;;
17404;SDS011;8820;54.604;18.226;2023-03-01T10:44:37;22.93;;;15.33;;
17404;SDS011;8820;54.604;18.226;2023-03-01T10:47:20;29.00;;;16.30;;
17404;SDS011;8820;54.604;18.226;2023-03-01T10:49:51;23.43;;;14.30;;
17404;SDS011;8820;54.604;18.226;2023-03-01T10:52:32;25.63;;;15.47;;
17404;SDS011;8820;54.604;18.226;2023-03-01T10:55:04;21.63;;;13.77;;
17404;SDS011;8820;54.604;18.226;2023-03-01T10:57:54;31.40;;;17.87;;
17404;SDS011;8820;54.604;18.226;2023-03-01T11:00:46;39.23;;;22.13;;
17404;SDS011;8820;54.604;18.226;2023-03-01T11:03:18;33.40;;;19.43;;
17404;SDS011;8820;54.604;18.226;2023-03-01T11:05:55;26.70;;;15.37;;
17404;SDS011;8820;54.604;18.226;2023-03-01T11:11:23;22.63;;;14.67;;
17404;SDS011;8820;54.604;18.226;2023-03-01T11:13:58;23.17;;;14.77;;
17404;SDS011;8820;54.604;18.226;2023-03-01T11:16:58;24.07;;;15.80;;
17404;SDS011;8820;54.604;18.226;2023-03-01T11:19:28;26.13;;;16.83;;
17404;SDS011;8820;54.604;18.226;2023-03-01T11:21:59;28.20;;;16.13;;
17404;SDS011;8820;54.604;18.226;2023-03-01T11:24:33;25.47;;;15.93;;
17404;SDS011;8820;54.604;18.226;2023-03-01T11:27:13;24.43;;;16.47;;
17404;SDS011;8820;54.604;18.226;2023-03-01T11:29:47;23.97;;;15.37;;
17404;SDS011;8820;54.604;18.226;2023-03-01T11:32:23;25.30;;;15.77;;
17404;SDS011;8820;54.604;18.226;2023-03-01T11:34:55;21.70;;;15.60;;
17404;SDS011;8820;54.604;18.226;2023-03-01T11:37:32;25.23;;;15.03;;
17404;SDS011;8820;54.604;18.226;2023-03-01T11:40:07;20.47;;;14.37;;
17404;SDS011;8820;54.604;18.226;2023-03-01T11:42:48;20.43;;;14.20;;
17404;SDS011;8820;54.604;18.226;2023-03-01T11:45:28;22.70;;;15.37;;
17404;SDS011;8820;54.604;18.226;2023-03-01T11:48:27;24.97;;;17.27;;
17404;SDS011;8820;54.604;18.226;2023-03-01T11:51:20;20.70;;;15.07;;
17404;SDS011;8820;54.604;18.226;2023-03-01T11:54:04;21.77;;;14.57;;
17404;SDS011;8820;54.604;18.226;2023-03-01T11:56:41;17.57;;;13.93;;
17404;SDS011;8820;54.604;18.226;2023-03-01T12:05:25;17.13;;;12.30;;
17404;SDS011;8820;54.604;18.226;2023-03-01T12:08:17;22.83;;;14.27;;
17404;SDS011;8820;54.604;18.226;2023-03-01T12:10:57;17.80;;;12.67;;
17404;SDS011;8820;54.604;18.226;2023-03-01T12:16:39;16.83;;;13.50;;
17404;SDS011;8820;54.604;18.226;2023-03-01T12:22:12;17.93;;;12.60;;
17404;SDS011;8820;54.604;18.226;2023-03-01T12:24:52;15.07;;;12.07;;
17404;SDS011;8820;54.604;18.226;2023-03-01T12:27:43;16.03;;;12.53;;
17404;SDS011;8820;54.604;18.226;2023-03-01T12:30:29;14.87;;;12.03;;
17404;SDS011;8820;54.604;18.226;2023-03-01T12:33:12;15.83;;;11.80;;
17404;SDS011;8820;54.604;18.226;2023-03-01T12:35:51;15.23;;;11.73;;
17404;SDS011;8820;54.604;18.226;2023-03-01T12:38:37;15.03;;;12.40;;
17404;SDS011;8820;54.604;18.226;2023-03-01T12:44:11;17.07;;;12.13;;
17404;SDS011;8820;54.604;18.226;2023-03-01T12:46:52;16.50;;;11.80;;
17404;SDS011;8820;54.604;18.226;2023-03-01T12:49:35;12.00;;;10.23;;
17404;SDS011;8820;54.604;18.226;2023-03-01T12:52:10;16.40;;;11.67;;
17404;SDS011;8820;54.604;18.226;2023-03-01T12:54:45;15.17;;;10.70;;
17404;SDS011;8820;54.604;18.226;2023-03-01T12:57:17;13.50;;;10.40;;
17404;SDS011;8820;54.604;18.226;2023-03-01T12:59:58;13.03;;;10.07;;
17404;SDS011;8820;54.604;18.226;2023-03-01T13:02:35;11.47;;;9.37;;
17404;SDS011;8820;54.604;18.226;2023-03-01T13:05:20;12.23;;;8.90;;
17404;SDS011;8820;54.604;18.226;2023-03-01T13:07:55;14.00;;;9.43;;
17404;SDS011;8820;54.604;18.226;2023-03-01T13:10:38;14.67;;;11.67;;
17404;SDS011;8820;54.604;18.226;2023-03-01T13:13:13;11.47;;;9.70;;
17404;SDS011;8820;54.604;18.226;2023-03-01T13:15:47;12.77;;;9.67;;
17404;SDS011;8820;54.604;18.226;2023-03-01T13:18:28;16.10;;;10.87;;
17404;SDS011;8820;54.604;18.226;2023-03-01T13:21:02;20.20;;;14.93;;
17404;SDS011;8820;54.604;18.226;2023-03-01T13:23:33;15.13;;;9.57;;
17404;SDS011;8820;54.604;18.226;2023-03-01T13:26:10;14.60;;;11.30;;
17404;SDS011;8820;54.604;18.226;2023-03-01T13:28:48;12.00;;;10.07;;
17404;SDS011;8820;54.604;18.226;2023-03-01T13:34:40;12.10;;;9.27;;
17404;SDS011;8820;54.604;18.226;2023-03-01T13:37:13;15.03;;;9.73;;
17404;SDS011;8820;54.604;18.226;2023-03-01T13:43:30;17.00;;;11.33;;
17404;SDS011;8820;54.604;18.226;2023-03-01T13:46:00;14.00;;;10.33;;
17404;SDS011;8820;54.604;18.226;2023-03-01T13:48:35;14.53;;;10.30;;
17404;SDS011;8820;54.604;18.226;2023-03-01T13:51:06;15.07;;;10.90;;
17404;SDS011;8820;54.604;18.226;2023-03-01T13:53:39;15.20;;;11.17;;
17404;SDS011;8820;54.604;18.226;2023-03-01T13:56:12;13.90;;;10.90;;
17404;SDS011;8820;54.604;18.226;2023-03-01T13:58:48;15.17;;;11.43;;
17404;SDS011;8820;54.604;18.226;2023-03-01T14:01:24;19.00;;;11.93;;
17404;SDS011;8820;54.604;18.226;2023-03-01T14:03:56;20.00;;;11.73;;
17404;SDS011;8820;54.604;18.226;2023-03-01T14:06:25;21.53;;;11.47;;
17404;SDS011;8820;54.604;18.226;2023-03-01T14:09:03;14.83;;;9.87;;
17404;SDS011;8820;54.604;18.226;2023-03-01T14:11:47;19.73;;;11.33;;
17404;SDS011;8820;54.604;18.226;2023-03-01T14:14:31;16.40;;;11.33;;
17404;SDS011;8820;54.604;18.226;2023-03-01T14:20:17;13.47;;;10.63;;
17404;SDS011;8820;54.604;18.226;2023-03-01T14:22:47;17.80;;;13.10;;
17404;SDS011;8820;54.604;18.226;2023-03-01T14:25:28;14.87;;;9.93;;
17404;SDS011;8820;54.604;18.226;2023-03-01T14:28:03;9.77;;;6.17;;
17404;SDS011;8820;54.604;18.226;2023-03-01T14:30:44;9.23;;;5.73;;
17404;SDS011;8820;54.604;18.226;2023-03-01T14:33:19;7.20;;;5.37;;
17404;SDS011;8820;54.604;18.226;2023-03-01T14:35:55;6.80;;;4.60;;
17404;SDS011;8820;54.604;18.226;2023-03-01T14:38:31;7.43;;;5.17;;
17404;SDS011;8820;54.604;18.226;2023-03-01T14:41:06;6.70;;;5.03;;
17404;SDS011;8820;54.604;18.226;2023-03-01T14:43:38;9.47;;;5.77;;
17404;SDS011;8820;54.604;18.226;2023-03-01T14:46:18;7.77;;;5.10;;
17404;SDS011;8820;54.604;18.226;2023-03-01T14:48:49;7.90;;;4.60;;
17404;SDS011;8820;54.604;18.226;2023-03-01T14:51:19;6.90;;;4.73;;
17404;SDS011;8820;54.604;18.226;2023-03-01T14:53:48;5.87;;;4.43;;
17404;SDS011;8820;54.604;18.226;2023-03-01T14:56:18;7.23;;;4.17;;
17404;SDS011;8820;54.604;18.226;2023-03-01T14:58:50;6.70;;;4.33;;
17404;SDS011;8820;54.604;18.226;2023-03-01T15:01:21;6.80;;;4.30;;
17404;SDS011;8820;54.604;18.226;2023-03-01T15:03:51;8.30;;;5.27;;
17404;SDS011;8820;54.604;18.226;2023-03-01T15:06:21;7.70;;;5.57;;
17404;SDS011;8820;54.604;18.226;2023-03-01T15:08:52;8.97;;;5.27;;
17404;SDS011;8820;54.604;18.226;2023-03-01T15:11:24;6.07;;;4.33;;
17404;SDS011;8820;54.604;18.226;2023-03-01T15:13:57;6.70;;;4.23;;
17404;SDS011;8820;54.604;18.226;2023-03-01T15:16:29;6.53;;;4.33;;
17404;SDS011;8820;54.604;18.226;2023-03-01T15:19:00;9.57;;;6.23;;
17404;SDS011;8820;54.604;18.226;2023-03-01T15:21:32;8.10;;;5.30;;
17404;SDS011;8820;54.604;18.226;2023-03-01T15:24:03;13.33;;;6.40;;
17404;SDS011;8820;54.604;18.226;2023-03-01T15:26:40;6.83;;;5.10;;